Metar z połowy godziny Komunikat METAR ze strony awiacja.imgw.pl Metar Mil EPNA METAR EPNA 261200Z 28014KT 9999 SCT008 BKN014 00/M02 Q1007 RMK 001 087 7/3=